Jack Mc Namara Field Airport Crescent City US
ICAO: KCEC
IATA: CEC
Category: Medium
Scheduled Services: Yes

Elevation: 61 ft
TransAlt. 18000 ft.

Airport Communications:
ASOS:119.925
SEATTLE CNTR:124.85
CTAF:122.8
OAKLAND RDO:122.3
UNICOM:122.8

KCEC Zoom In..

If you have problems with the map follow the link
https://www.worldairports.se/pages/airport.php?
ICAO=KCEC

Runways:

(A) RW 11 length 5000 ft width 150 ft
ILS 108.70 / hdg 117

(B) RW 17 length 5001 ft width 150 ft
---- / hdg 177

(C) RW 29 length 5000 ft width 150 ft
---- / hdg 297

(D) RW 35 length 5001 ft width 150 ft
---- / hdg 357

Location; KCEC
Day. 18 / Time. 06.56 Zulu
* Altimeter: 30.14
* Temperature: 09° c. 48.2°f.
* Wind from: 110° Speed 04 kn.
Dewpoint: 09° c.
Visibility: 1 m.
Clouds: Overcast 300 ft.
Conditions: Mist.

KCEC 180656Z AUTO 11004KT 1 3/4SM BR OVC003 09/09 A3014 RMK AO2 SLP208 T00940089


Wind From 110°
Speed 04 kn.

 
 
jpsmedia.com for Web Design worldairports.se 2018   terms of use